createdAt,value
2022-07-29T00:01:09.363Z,59.31
2022-07-29T00:03:46.771Z,59.07
2022-07-29T00:06:15.032Z,62.45
2022-07-29T00:08:42.272Z,63.12
2022-07-29T00:11:09.730Z,65.11
2022-07-29T00:13:36.747Z,63.32
2022-07-29T00:16:04.711Z,64.77
2022-07-29T00:18:32.924Z,64.80
2022-07-29T00:21:00.185Z,64.99
2022-07-29T00:23:27.540Z,65.44
2022-07-29T00:25:55.053Z,63.44
2022-07-29T00:28:22.166Z,61.09
2022-07-29T00:30:49.320Z,61.16
2022-07-29T00:33:16.622Z,61.55
2022-07-29T00:35:47.089Z,61.77
2022-07-29T00:38:18.295Z,62.38
2022-07-29T00:40:46.149Z,61.53
2022-07-29T00:43:14.735Z,60.62
2022-07-29T00:45:44.433Z,60.91
2022-07-29T00:48:11.493Z,60.91
2022-07-29T00:50:39.777Z,58.72
2022-07-29T00:53:08.882Z,59.76
2022-07-29T00:55:36.518Z,61.37
2022-07-29T00:58:04.208Z,61.07
2022-07-29T01:00:31.784Z,62.07
2022-07-29T01:02:59.327Z,62.99
2022-07-29T01:05:49.801Z,62.96
2022-07-29T01:08:18.185Z,61.96
2022-07-29T01:10:47.053Z,62.97
2022-07-29T01:13:15.873Z,61.63
2022-07-29T01:16:08.287Z,60.89
2022-07-29T01:18:40.446Z,60.83
2022-07-29T01:21:51.942Z,60.03
2022-07-29T01:25:28.306Z,59.71
2022-07-29T01:28:11.786Z,60.19
2022-07-29T01:30:42.938Z,59.98
2022-07-29T01:33:36.414Z,60.07
2022-07-29T01:36:12.779Z,59.55
2022-07-29T01:38:43.190Z,58.73
2022-07-29T01:41:16.365Z,59.34
2022-07-29T01:44:02.349Z,59.39
2022-07-29T01:46:38.396Z,58.24
2022-07-29T01:49:21.120Z,58.50
2022-07-29T01:51:54.036Z,58.52
2022-07-29T01:54:46.679Z,58.67
2022-07-29T01:57:21.023Z,58.29
2022-07-29T01:59:49.551Z,59.08
2022-07-29T02:02:19.220Z,59.71
2022-07-29T02:04:49.596Z,59.73
2022-07-29T02:07:25.655Z,61.08
2022-07-29T02:09:53.799Z,61.59
2022-07-29T02:12:23.044Z,61.60
2022-07-29T02:14:53.931Z,62.05
2022-07-29T02:17:32.017Z,62.11
2022-07-29T02:20:02.787Z,61.30
2022-07-29T02:22:34.445Z,61.19
2022-07-29T02:25:03.129Z,61.15
2022-07-29T02:27:33.572Z,60.59
2022-07-29T02:30:03.853Z,61.09
2022-07-29T02:32:35.173Z,61.67
2022-07-29T02:35:04.436Z,61.72
2022-07-29T02:37:33.055Z,62.50
2022-07-29T02:40:02.690Z,61.54
2022-07-29T02:42:32.257Z,62.10
2022-07-29T02:44:59.453Z,61.61
2022-07-29T02:47:43.054Z,61.68
2022-07-29T02:50:16.755Z,62.56
2022-07-29T02:53:08.433Z,61.00
2022-07-29T02:55:45.976Z,62.78
2022-07-29T02:58:39.001Z,64.22
2022-07-29T03:01:20.913Z,63.48
2022-07-29T03:03:52.725Z,62.83
2022-07-29T03:06:28.137Z,63.10
2022-07-29T03:09:12.786Z,62.96
2022-07-29T03:11:50.230Z,63.08
2022-07-29T03:14:21.865Z,62.60
2022-07-29T03:16:51.124Z,63.41
2022-07-29T03:19:20.030Z,64.52
2022-07-29T03:21:47.456Z,64.63
2022-07-29T03:24:37.808Z,63.78
2022-07-29T03:27:06.607Z,64.09
2022-07-29T03:29:34.722Z,64.33
2022-07-29T03:32:07.849Z,65.21
2022-07-29T03:34:36.823Z,66.39
2022-07-29T03:37:04.503Z,66.24
2022-07-29T03:39:37.465Z,66.49
2022-07-29T03:42:06.418Z,66.41
2022-07-29T03:44:34.890Z,66.44
2022-07-29T03:47:03.163Z,67.45
2022-07-29T03:49:31.856Z,68.43
2022-07-29T03:51:59.563Z,69.37
2022-07-29T03:54:27.324Z,68.30
2022-07-29T03:56:58.607Z,68.64
2022-07-29T03:59:25.950Z,69.61
2022-07-29T04:01:53.920Z,70.17
2022-07-29T04:04:21.106Z,69.28
2022-07-29T04:06:48.602Z,68.42
2022-07-29T04:09:15.752Z,68.94
2022-07-29T04:11:57.125Z,68.77
2022-07-29T04:14:33.199Z,69.24
2022-07-29T04:17:04.520Z,70.78
2022-07-29T04:22:18.643Z,70.62
2022-07-29T04:24:46.456Z,69.75
2022-07-29T04:27:13.619Z,68.94
2022-07-29T04:29:57.015Z,68.46
2022-07-29T04:32:26.562Z,68.67
2022-07-29T04:34:53.640Z,68.05
2022-07-29T04:37:20.715Z,67.87
2022-07-29T04:39:47.935Z,67.11
2022-07-29T04:42:15.097Z,67.53
2022-07-29T04:44:44.300Z,66.92
2022-07-29T04:47:11.364Z,66.55
2022-07-29T04:49:41.425Z,66.87
2022-07-29T04:52:08.373Z,66.22
2022-07-29T04:54:35.420Z,65.11
2022-07-29T04:57:02.667Z,60.81
2022-07-29T04:59:29.641Z,65.08
2022-07-29T05:01:56.887Z,65.87
2022-07-29T05:04:24.122Z,65.15
2022-07-29T05:06:51.157Z,65.01
2022-07-29T05:09:18.363Z,64.61
2022-07-29T05:11:45.342Z,64.79
2022-07-29T05:14:12.318Z,64.92
2022-07-29T05:16:41.187Z,63.66
2022-07-29T05:19:13.827Z,63.11
2022-07-29T05:21:41.679Z,61.94
2022-07-29T05:24:09.004Z,59.18
2022-07-29T05:26:36.486Z,56.98
2022-07-29T05:29:03.680Z,56.85
2022-07-29T05:31:30.648Z,59.97
2022-07-29T05:33:58.142Z,56.87
2022-07-29T05:36:25.062Z,53.79
2022-07-29T05:38:53.128Z,59.74
2022-07-29T05:41:20.969Z,60.48
2022-07-29T05:43:48.555Z,61.05
2022-07-29T05:46:16.112Z,61.06
2022-07-29T05:48:43.313Z,60.64
2022-07-29T05:51:11.062Z,60.96
2022-07-29T05:53:38.194Z,58.77
2022-07-29T05:56:06.606Z,56.54
2022-07-29T05:58:34.032Z,57.64
2022-07-29T06:01:01.569Z,57.60
2022-07-29T06:03:29.622Z,58.04
2022-07-29T06:05:56.899Z,58.18
2022-07-29T06:08:24.337Z,58.42
2022-07-29T06:10:51.662Z,58.88
2022-07-29T06:13:19.469Z,58.85
2022-07-29T06:15:46.672Z,58.76
2022-07-29T06:18:14.496Z,58.93
2022-07-29T06:20:41.898Z,59.24
2022-07-29T06:23:09.123Z,59.11
2022-07-29T06:25:37.621Z,59.30
2022-07-29T06:28:04.888Z,58.96
2022-07-29T06:30:32.077Z,59.15
2022-07-29T06:32:59.323Z,58.88
2022-07-29T06:35:38.501Z,60.21
2022-07-29T06:38:31.593Z,58.63
2022-07-29T06:41:13.158Z,57.91
2022-07-29T06:43:52.104Z,57.82
2022-07-29T06:46:22.650Z,58.69
2022-07-29T06:48:51.187Z,58.57
2022-07-29T06:51:22.739Z,58.81
2022-07-29T06:53:58.436Z,58.16
2022-07-29T06:56:38.822Z,59.11
2022-07-29T06:59:10.547Z,58.81
2022-07-29T07:01:39.490Z,59.52
2022-07-29T07:04:07.253Z,61.08
2022-07-29T07:06:34.785Z,60.60
2022-07-29T07:09:02.789Z,60.53
2022-07-29T07:11:30.013Z,59.47
2022-07-29T07:14:02.241Z,60.22
2022-07-29T07:16:30.733Z,59.86
2022-07-29T07:18:57.789Z,57.29
2022-07-29T07:21:24.716Z,56.50
2022-07-29T07:23:51.832Z,58.00
2022-07-29T07:26:19.105Z,58.11
2022-07-29T07:28:46.585Z,55.30
2022-07-29T07:31:13.684Z,55.16
2022-07-29T07:33:40.860Z,55.37
2022-07-29T07:36:07.931Z,55.36
2022-07-29T07:38:35.824Z,54.17
2022-07-29T07:41:02.986Z,54.35
2022-07-29T07:43:30.026Z,54.31
2022-07-29T07:45:57.002Z,53.44
2022-07-29T07:48:24.299Z,52.99
2022-07-29T07:50:51.589Z,53.06
2022-07-29T07:53:19.066Z,51.78
2022-07-29T07:58:33.585Z,51.62
2022-07-29T08:01:00.573Z,51.81
2022-07-29T08:03:27.731Z,52.78
2022-07-29T08:05:55.458Z,52.68
2022-07-29T08:08:22.530Z,52.44
2022-07-29T08:11:02.138Z,51.68
2022-07-29T08:13:32.900Z,50.96
2022-07-29T08:16:12.161Z,50.54
2022-07-29T08:18:41.349Z,50.05
2022-07-29T08:21:08.271Z,50.31
2022-07-29T08:23:50.522Z,49.28
2022-07-29T08:26:21.768Z,49.67
2022-07-29T08:28:53.400Z,49.23
2022-07-29T08:31:20.619Z,49.29
2022-07-29T08:33:47.615Z,49.13
2022-07-29T08:36:14.744Z,48.61
2022-07-29T08:38:41.663Z,48.77
2022-07-29T08:41:08.641Z,49.20
2022-07-29T08:43:38.356Z,50.04
2022-07-29T08:46:05.951Z,50.34
2022-07-29T08:48:34.273Z,50.35
2022-07-29T08:51:02.489Z,50.21
2022-07-29T08:53:31.610Z,50.69
2022-07-29T08:55:59.426Z,50.41
2022-07-29T08:58:28.922Z,49.70
2022-07-29T09:00:57.940Z,49.63
2022-07-29T09:03:32.309Z,50.36
2022-07-29T09:06:03.474Z,49.18
2022-07-29T09:08:33.190Z,48.56
2022-07-29T09:11:04.078Z,48.63
2022-07-29T09:13:33.126Z,48.68
2022-07-29T09:16:01.184Z,49.19
2022-07-29T09:18:41.212Z,48.49
2022-07-29T09:21:30.697Z,48.31
2022-07-29T09:24:14.008Z,48.38
2022-07-29T09:26:45.298Z,48.40
2022-07-29T09:29:15.924Z,48.23
2022-07-29T09:31:46.585Z,48.33
2022-07-29T09:34:17.967Z,48.01
2022-07-29T09:36:50.658Z,48.23
2022-07-29T09:39:36.091Z,48.17
2022-07-29T09:42:06.573Z,48.67
2022-07-29T09:45:03.664Z,48.75
2022-07-29T09:47:50.239Z,48.73
2022-07-29T09:50:20.575Z,49.06
2022-07-29T09:52:52.302Z,48.20
2022-07-29T09:55:20.075Z,48.41
2022-07-29T09:57:48.043Z,49.26
2022-07-29T10:00:21.011Z,48.65
2022-07-29T10:02:48.866Z,49.02
2022-07-29T10:05:36.610Z,49.04
2022-07-29T10:08:04.437Z,49.08
2022-07-29T10:10:38.271Z,49.33
2022-07-29T10:13:15.346Z,48.71
2022-07-29T10:15:46.917Z,48.22
2022-07-29T10:18:15.527Z,49.17
2022-07-29T10:20:42.807Z,48.96
2022-07-29T10:23:10.507Z,48.90
2022-07-29T10:25:38.065Z,48.45
2022-07-29T10:28:07.370Z,48.51
2022-07-29T10:30:35.018Z,47.31
2022-07-29T10:33:39.961Z,47.22
2022-07-29T10:36:43.397Z,47.43
2022-07-29T10:39:26.643Z,46.95
2022-07-29T10:42:33.344Z,47.12
2022-07-29T10:45:04.618Z,47.44
2022-07-29T10:47:32.332Z,47.08
2022-07-29T10:50:05.220Z,47.44
2022-07-29T10:52:50.541Z,47.74
2022-07-29T10:55:43.653Z,47.22
2022-07-29T10:58:18.935Z,47.33
2022-07-29T11:00:49.474Z,47.56
2022-07-29T11:03:48.975Z,46.21
2022-07-29T11:06:18.000Z,47.57
2022-07-29T11:09:34.816Z,48.40
2022-07-29T11:12:02.921Z,48.24
2022-07-29T11:14:55.886Z,47.90
2022-07-29T11:17:23.819Z,47.78
2022-07-29T11:19:52.777Z,48.26
2022-07-29T11:22:45.834Z,47.85
2022-07-29T11:25:18.102Z,48.20
2022-07-29T11:27:46.114Z,47.91
2022-07-29T11:30:14.532Z,48.16
2022-07-29T11:38:32.065Z,47.47
2022-07-29T11:41:18.565Z,47.86
2022-07-29T11:44:00.751Z,47.58
2022-07-29T11:46:54.011Z,47.92
2022-07-29T11:49:32.091Z,47.55
2022-07-29T11:52:04.906Z,46.85
2022-07-29T11:54:38.797Z,46.47
2022-07-29T11:57:29.495Z,46.88
2022-07-29T12:00:12.295Z,46.00
2022-07-29T12:02:45.093Z,46.51
2022-07-29T12:05:23.944Z,46.24
2022-07-29T12:07:03.313Z,47.98
2022-07-29T12:08:21.154Z,46.59
2022-07-29T12:10:50.282Z,46.72
2022-07-29T12:13:20.585Z,46.43
2022-07-29T12:16:00.030Z,45.98
2022-07-29T12:18:28.017Z,47.14
2022-07-29T12:21:03.800Z,47.84
2022-07-29T12:23:34.823Z,48.28
2022-07-29T12:26:07.696Z,48.59
2022-07-29T12:28:41.154Z,47.69
2022-07-29T12:31:42.014Z,47.03
2022-07-29T12:34:03.129Z,47.92
2022-07-29T12:36:30.348Z,49.94
2022-07-29T12:38:57.664Z,51.35
2022-07-29T12:41:24.795Z,51.57
2022-07-29T12:43:55.865Z,51.50
2022-07-29T12:46:23.080Z,53.19
2022-07-29T12:48:55.849Z,52.01
2022-07-29T12:51:40.710Z,51.32
2022-07-29T12:54:12.233Z,50.86
2022-07-29T12:56:43.535Z,50.02
2022-07-29T12:59:23.150Z,50.58
2022-07-29T13:01:53.115Z,50.16
2022-07-29T13:04:28.542Z,49.81
2022-07-29T13:07:08.117Z,50.11
2022-07-29T13:09:49.312Z,49.05
2022-07-29T13:12:17.226Z,48.79
2022-07-29T13:14:47.866Z,49.08
2022-07-29T13:17:28.702Z,49.67
2022-07-29T13:20:13.467Z,50.72
2022-07-29T13:22:43.201Z,50.10
2022-07-29T13:25:10.968Z,50.26
2022-07-29T13:27:39.643Z,49.80
2022-07-29T13:30:10.318Z,48.97
2022-07-29T13:32:38.573Z,48.22
2022-07-29T13:35:08.993Z,48.12
2022-07-29T13:37:39.379Z,47.80
2022-07-29T13:40:09.233Z,47.46
2022-07-29T13:42:36.807Z,47.76
2022-07-29T13:45:05.447Z,47.31
2022-07-29T13:47:33.401Z,46.49
2022-07-29T13:50:02.347Z,47.24
2022-07-29T13:52:29.697Z,46.76
2022-07-29T13:54:57.566Z,45.93
2022-07-29T13:57:25.065Z,46.34
2022-07-29T13:59:54.362Z,45.47
2022-07-29T14:02:25.844Z,46.05
2022-07-29T14:04:55.348Z,45.54
2022-07-29T14:07:23.884Z,45.05
2022-07-29T14:09:51.467Z,46.07
2022-07-29T14:12:19.126Z,45.37
2022-07-29T14:14:47.246Z,45.24
2022-07-29T14:17:15.701Z,45.61
2022-07-29T14:19:43.160Z,45.23
2022-07-29T14:22:10.852Z,44.52
2022-07-29T14:24:39.355Z,43.93
2022-07-29T14:27:08.192Z,44.42
2022-07-29T14:29:38.137Z,43.74
2022-07-29T14:32:11.588Z,43.76
2022-07-29T14:34:39.157Z,43.87
2022-07-29T14:37:07.901Z,43.85
2022-07-29T14:39:43.090Z,43.80
2022-07-29T14:42:12.654Z,43.60
2022-07-29T14:44:42.092Z,43.04
2022-07-29T14:47:09.453Z,43.00
2022-07-29T14:49:37.033Z,43.47
2022-07-29T14:52:04.750Z,43.18
2022-07-29T14:54:31.959Z,43.06
2022-07-29T14:56:59.037Z,43.00
2022-07-29T14:59:27.093Z,42.81
2022-07-29T15:01:54.467Z,42.66
2022-07-29T15:04:21.481Z,42.67
2022-07-29T15:06:48.961Z,42.78
2022-07-29T15:09:16.408Z,42.66
2022-07-29T15:11:43.573Z,42.88
2022-07-29T15:14:10.857Z,42.63
2022-07-29T15:16:43.562Z,42.57
2022-07-29T15:19:11.744Z,41.82
2022-07-29T15:21:41.597Z,41.61
2022-07-29T15:24:20.251Z,41.05
2022-07-29T15:26:48.419Z,41.39
2022-07-29T15:29:15.972Z,40.34
2022-07-29T15:31:43.925Z,40.40
2022-07-29T15:34:11.119Z,40.10
2022-07-29T15:36:54.034Z,39.58
2022-07-29T15:39:22.922Z,40.02
2022-07-29T15:41:51.496Z,39.34
2022-07-29T15:44:19.021Z,38.94
2022-07-29T15:47:04.644Z,38.58
2022-07-29T15:49:47.290Z,39.00
2022-07-29T15:52:25.471Z,40.03
2022-07-29T15:54:55.350Z,39.61
2022-07-29T15:57:23.425Z,38.31
2022-07-29T15:59:50.808Z,37.86
2022-07-29T16:02:17.796Z,38.55
2022-07-29T16:04:44.913Z,38.10
2022-07-29T16:07:12.335Z,38.02
2022-07-29T16:09:42.251Z,38.31
2022-07-29T16:12:12.674Z,37.37
2022-07-29T16:14:44.414Z,36.86
2022-07-29T16:17:14.994Z,37.00
2022-07-29T16:19:44.307Z,37.04
2022-07-29T16:22:12.516Z,36.49
2022-07-29T16:24:39.674Z,36.55
2022-07-29T16:27:06.986Z,36.10
2022-07-29T16:29:34.278Z,36.25
2022-07-29T16:32:02.392Z,37.47
2022-07-29T16:34:29.822Z,37.36
2022-07-29T16:36:56.850Z,37.66
2022-07-29T16:39:23.799Z,37.46
2022-07-29T16:41:50.872Z,37.11
2022-07-29T16:44:17.941Z,36.86
2022-07-29T16:46:45.818Z,35.92
2022-07-29T16:49:19.039Z,36.69
2022-07-29T16:51:48.520Z,37.08
2022-07-29T16:54:15.512Z,36.80
2022-07-29T16:56:42.592Z,36.62
2022-07-29T16:59:09.830Z,36.88
2022-07-29T17:01:36.972Z,36.93
2022-07-29T17:04:07.181Z,35.87
2022-07-29T17:06:39.971Z,36.59
2022-07-29T17:09:09.896Z,36.78
2022-07-29T17:11:52.325Z,36.61
2022-07-29T17:14:28.303Z,36.94
2022-07-29T17:17:01.177Z,36.93
2022-07-29T17:19:35.698Z,37.03
2022-07-29T17:22:12.651Z,36.97
2022-07-29T17:24:43.118Z,37.09
2022-07-29T17:27:11.044Z,37.61
2022-07-29T17:29:39.293Z,37.58
2022-07-29T17:32:08.977Z,38.22
2022-07-29T17:34:37.608Z,37.97
2022-07-29T17:37:07.814Z,38.07
2022-07-29T17:39:35.635Z,38.28
2022-07-29T17:42:04.237Z,38.77
2022-07-29T17:44:31.246Z,38.79
2022-07-29T17:47:00.574Z,38.52
2022-07-29T17:49:28.188Z,39.00
2022-07-29T17:51:59.047Z,38.83
2022-07-29T17:54:28.015Z,38.78
2022-07-29T17:56:55.322Z,38.84
2022-07-29T17:59:22.790Z,38.68
2022-07-29T18:01:49.773Z,38.81
2022-07-29T18:04:20.885Z,38.75
2022-07-29T18:06:48.074Z,39.28
2022-07-29T18:09:15.117Z,39.34
2022-07-29T18:11:44.369Z,39.12
2022-07-29T18:14:13.456Z,39.35
2022-07-29T18:16:40.771Z,39.08
2022-07-29T18:19:07.878Z,39.13
2022-07-29T18:21:43.645Z,38.93
2022-07-29T18:24:20.599Z,39.68
2022-07-29T18:26:47.757Z,39.31
2022-07-29T18:29:14.839Z,39.05
2022-07-29T18:31:42.390Z,39.19
2022-07-29T18:34:09.350Z,39.41
2022-07-29T18:36:36.604Z,39.22
2022-07-29T18:39:03.847Z,39.37
2022-07-29T18:41:31.319Z,39.10
2022-07-29T18:43:58.811Z,39.09
2022-07-29T18:46:25.814Z,39.36
2022-07-29T18:48:53.435Z,39.21
2022-07-29T18:51:20.372Z,39.47
2022-07-29T18:53:47.667Z,39.63
2022-07-29T18:56:14.718Z,39.38
2022-07-29T18:58:41.635Z,39.08
2022-07-29T19:01:11.446Z,39.52
2022-07-29T19:03:41.954Z,39.51
2022-07-29T19:06:09.320Z,40.29
2022-07-29T19:08:36.321Z,40.66
2022-07-29T19:11:03.489Z,39.17
2022-07-29T19:13:30.963Z,39.42
2022-07-29T19:15:58.124Z,39.03
2022-07-29T19:18:25.350Z,40.72
2022-07-29T19:20:52.268Z,41.46
2022-07-29T19:23:19.680Z,42.17
2022-07-29T19:25:53.790Z,41.03
2022-07-29T19:28:22.573Z,41.86
2022-07-29T19:30:50.009Z,40.91
2022-07-29T19:33:18.837Z,40.60
2022-07-29T19:35:49.322Z,40.87
2022-07-29T19:38:18.606Z,40.45
2022-07-29T19:40:45.610Z,41.33
2022-07-29T19:43:50.526Z,43.40
2022-07-29T19:45:59.697Z,42.59
2022-07-29T19:48:26.675Z,41.99
2022-07-29T19:50:53.759Z,42.74
2022-07-29T19:53:20.774Z,41.55
2022-07-29T19:55:47.832Z,41.95
2022-07-29T19:58:16.180Z,43.07
2022-07-29T20:00:43.609Z,42.57
2022-07-29T20:03:10.852Z,41.85
2022-07-29T20:05:38.093Z,43.55
2022-07-29T20:08:06.226Z,42.33
2022-07-29T20:10:33.887Z,43.68
2022-07-29T20:13:00.973Z,42.70
2022-07-29T20:15:28.094Z,42.14
2022-07-29T20:17:57.316Z,42.87
2022-07-29T20:20:25.733Z,42.79
2022-07-29T20:22:53.804Z,42.12
2022-07-29T20:25:20.806Z,42.72
2022-07-29T20:27:50.578Z,43.21
2022-07-29T20:30:19.132Z,44.20
2022-07-29T20:32:46.104Z,44.37
2022-07-29T20:35:13.915Z,44.36
2022-07-29T20:37:52.342Z,44.36
2022-07-29T20:40:25.713Z,44.43
2022-07-29T20:42:54.667Z,44.33
2022-07-29T20:45:23.847Z,45.50
2022-07-29T20:47:52.163Z,45.35
2022-07-29T20:50:23.883Z,44.67
2022-07-29T20:52:52.613Z,44.22
2022-07-29T20:55:19.895Z,44.57
2022-07-29T20:57:47.211Z,44.70
2022-07-29T21:00:14.714Z,46.00
2022-07-29T21:02:41.968Z,45.69
2022-07-29T21:05:09.708Z,45.76
2022-07-29T21:07:36.859Z,46.04
2022-07-29T21:10:04.899Z,46.81
2022-07-29T21:12:33.658Z,47.51
2022-07-29T21:15:05.352Z,47.12
2022-07-29T21:17:38.996Z,47.08
2022-07-29T21:20:08.525Z,46.97
2022-07-29T21:22:35.557Z,47.18
2022-07-29T21:25:02.949Z,47.25
2022-07-29T21:27:48.313Z,48.11
2022-07-29T21:30:15.715Z,47.67
2022-07-29T21:32:42.750Z,48.16
2022-07-29T21:35:23.384Z,48.37
2022-07-29T21:37:59.293Z,47.95
2022-07-29T21:40:26.402Z,48.02
2022-07-29T21:42:53.598Z,47.40
2022-07-29T21:45:20.649Z,47.51
2022-07-29T21:47:47.594Z,47.82
2022-07-29T21:50:14.713Z,47.83
2022-07-29T21:52:41.631Z,48.11
2022-07-29T21:55:10.553Z,48.06
2022-07-29T21:57:38.526Z,48.57
2022-07-29T22:00:10.511Z,49.04
2022-07-29T22:02:40.202Z,48.87
2022-07-29T22:05:07.613Z,48.82
2022-07-29T22:07:56.477Z,48.96
2022-07-29T22:10:22.638Z,49.34
2022-07-29T22:12:55.518Z,50.13
2022-07-29T22:15:23.276Z,48.65
2022-07-29T22:17:50.764Z,47.64
2022-07-29T22:20:18.157Z,47.56
2022-07-29T22:22:45.143Z,47.97
2022-07-29T22:25:12.581Z,48.37
2022-07-29T22:27:39.883Z,48.47
2022-07-29T22:30:08.046Z,49.42
2022-07-29T22:32:35.163Z,49.97
2022-07-29T22:35:02.134Z,50.77
2022-07-29T22:37:29.210Z,50.08
2022-07-29T22:39:56.641Z,50.91
2022-07-29T22:42:23.621Z,50.58
2022-07-29T22:44:51.131Z,51.09
2022-07-29T22:47:18.164Z,51.03
2022-07-29T22:50:06.565Z,50.41
2022-07-29T22:52:33.556Z,50.90
2022-07-29T22:55:00.664Z,51.06
2022-07-29T22:57:27.977Z,51.00
2022-07-29T22:59:54.900Z,52.38
2022-07-29T23:02:22.052Z,52.61
2022-07-29T23:04:49.137Z,53.37
2022-07-29T23:07:16.168Z,52.55
2022-07-29T23:09:43.262Z,53.00
2022-07-29T23:12:10.355Z,53.36
2022-07-29T23:14:37.684Z,52.59
2022-07-29T23:17:05.391Z,52.80
2022-07-29T23:19:32.382Z,54.05
2022-07-29T23:21:59.748Z,53.65
2022-07-29T23:24:26.706Z,52.28
2022-07-29T23:26:53.911Z,53.85
2022-07-29T23:29:20.878Z,54.11
2022-07-29T23:31:48.501Z,53.01
2022-07-29T23:34:16.006Z,53.15
2022-07-29T23:36:43.211Z,52.74
2022-07-29T23:39:13.313Z,54.51
2022-07-29T23:41:40.671Z,53.51
2022-07-29T23:44:07.765Z,55.03
2022-07-29T23:46:34.968Z,54.08
2022-07-29T23:49:02.254Z,54.65
2022-07-29T23:51:29.364Z,55.70
2022-07-29T23:53:56.634Z,53.65
2022-07-29T23:56:23.902Z,53.01
2022-07-29T23:58:50.977Z,52.67
